sensor_id;sensor_type;location;lat;lon;timestamp;P1;durP1;ratioP1;P2;durP2;ratioP2
27666;SDS011;15074;50.940;5.282;2022-09-29T00:01:41;15.27;;;13.95;;
27666;SDS011;15074;50.940;5.282;2022-09-29T00:04:07;14.50;;;13.20;;
27666;SDS011;15074;50.940;5.282;2022-09-29T00:06:33;15.00;;;13.52;;
27666;SDS011;15074;50.940;5.282;2022-09-29T00:08:59;15.25;;;13.85;;
27666;SDS011;15074;50.940;5.282;2022-09-29T00:11:24;14.23;;;12.80;;
27666;SDS011;15074;50.940;5.282;2022-09-29T00:13:50;14.75;;;13.45;;
27666;SDS011;15074;50.940;5.282;2022-09-29T00:16:15;16.70;;;15.20;;
27666;SDS011;15074;50.940;5.282;2022-09-29T00:18:41;15.60;;;14.15;;
27666;SDS011;15074;50.940;5.282;2022-09-29T00:21:08;15.05;;;13.75;;
27666;SDS011;15074;50.940;5.282;2022-09-29T00:23:38;16.80;;;15.18;;
27666;SDS011;15074;50.940;5.282;2022-09-29T00:28:37;18.40;;;14.82;;
27666;SDS011;15074;50.940;5.282;2022-09-29T00:33:32;17.63;;;14.30;;
27666;SDS011;15074;50.940;5.282;2022-09-29T00:36:04;22.15;;;16.38;;
27666;SDS011;15074;50.940;5.282;2022-09-29T00:38:33;15.75;;;14.45;;
27666;SDS011;15074;50.940;5.282;2022-09-29T00:40:59;18.30;;;15.43;;
27666;SDS011;15074;50.940;5.282;2022-09-29T00:46:37;15.20;;;13.70;;
27666;SDS011;15074;50.940;5.282;2022-09-29T00:49:57;13.35;;;12.25;;
27666;SDS011;15074;50.940;5.282;2022-09-29T00:52:09;15.88;;;14.43;;
27666;SDS011;15074;50.940;5.282;2022-09-29T00:57:27;17.90;;;16.10;;
27666;SDS011;15074;50.940;5.282;2022-09-29T01:00:03;16.98;;;15.38;;
27666;SDS011;15074;50.940;5.282;2022-09-29T01:02:38;17.90;;;16.17;;
27666;SDS011;15074;50.940;5.282;2022-09-29T01:05:11;16.63;;;15.13;;
27666;SDS011;15074;50.940;5.282;2022-09-29T01:07:41;16.58;;;15.00;;
27666;SDS011;15074;50.940;5.282;2022-09-29T01:10:10;18.73;;;15.77;;
27666;SDS011;15074;50.940;5.282;2022-09-29T01:12:40;15.50;;;14.10;;
27666;SDS011;15074;50.940;5.282;2022-09-29T01:15:07;16.02;;;14.35;;
27666;SDS011;15074;50.940;5.282;2022-09-29T01:17:33;16.90;;;15.18;;
27666;SDS011;15074;50.940;5.282;2022-09-29T01:20:15;15.52;;;14.13;;
27666;SDS011;15074;50.940;5.282;2022-09-29T01:25:44;22.05;;;16.35;;
27666;SDS011;15074;50.940;5.282;2022-09-29T01:34:08;18.58;;;15.85;;
27666;SDS011;15074;50.940;5.282;2022-09-29T01:41:56;18.60;;;16.45;;
27666;SDS011;15074;50.940;5.282;2022-09-29T01:47:22;23.25;;;17.00;;
27666;SDS011;15074;50.940;5.282;2022-09-29T01:50:14;17.77;;;16.05;;
27666;SDS011;15074;50.940;5.282;2022-09-29T01:52:47;23.20;;;17.80;;
27666;SDS011;15074;50.940;5.282;2022-09-29T01:55:20;19.42;;;15.38;;
27666;SDS011;15074;50.940;5.282;2022-09-29T01:57:53;16.88;;;15.10;;
27666;SDS011;15074;50.940;5.282;2022-09-29T02:00:49;25.05;;;18.73;;
27666;SDS011;15074;50.940;5.282;2022-09-29T02:03:21;21.73;;;17.33;;
27666;SDS011;15074;50.940;5.282;2022-09-29T02:05:57;20.73;;;16.60;;
27666;SDS011;15074;50.940;5.282;2022-09-29T02:11:10;20.58;;;17.70;;
27666;SDS011;15074;50.940;5.282;2022-09-29T02:14:20;18.95;;;16.92;;
27666;SDS011;15074;50.940;5.282;2022-09-29T02:16:42;20.27;;;16.55;;
27666;SDS011;15074;50.940;5.282;2022-09-29T02:19:18;23.10;;;15.75;;
27666;SDS011;15074;50.940;5.282;2022-09-29T02:21:48;18.05;;;14.88;;
27666;SDS011;15074;50.940;5.282;2022-09-29T02:24:18;16.77;;;15.15;;
27666;SDS011;15074;50.940;5.282;2022-09-29T02:26:44;20.38;;;16.55;;
27666;SDS011;15074;50.940;5.282;2022-09-29T02:29:10;19.73;;;17.05;;
27666;SDS011;15074;50.940;5.282;2022-09-29T02:31:36;17.60;;;15.88;;
27666;SDS011;15074;50.940;5.282;2022-09-29T02:34:03;17.80;;;15.75;;
27666;SDS011;15074;50.940;5.282;2022-09-29T02:36:46;19.48;;;15.90;;
27666;SDS011;15074;50.940;5.282;2022-09-29T02:59:15;19.20;;;16.10;;
27666;SDS011;15074;50.940;5.282;2022-09-29T03:01:47;20.75;;;16.83;;
27666;SDS011;15074;50.940;5.282;2022-09-29T03:04:15;20.15;;;17.02;;
27666;SDS011;15074;50.940;5.282;2022-09-29T03:06:42;21.98;;;18.58;;
27666;SDS011;15074;50.940;5.282;2022-09-29T03:09:08;27.55;;;18.63;;
27666;SDS011;15074;50.940;5.282;2022-09-29T03:11:34;26.75;;;17.73;;
27666;SDS011;15074;50.940;5.282;2022-09-29T03:13:59;23.00;;;16.33;;
27666;SDS011;15074;50.940;5.282;2022-09-29T03:16:25;23.73;;;17.80;;
27666;SDS011;15074;50.940;5.282;2022-09-29T03:18:51;27.83;;;18.67;;
27666;SDS011;15074;50.940;5.282;2022-09-29T03:21:16;24.92;;;19.15;;
27666;SDS011;15074;50.940;5.282;2022-09-29T03:23:42;25.20;;;18.63;;
27666;SDS011;15074;50.940;5.282;2022-09-29T03:26:08;30.13;;;19.05;;
27666;SDS011;15074;50.940;5.282;2022-09-29T03:28:33;24.00;;;18.02;;
27666;SDS011;15074;50.940;5.282;2022-09-29T03:31:02;18.75;;;15.90;;
27666;SDS011;15074;50.940;5.282;2022-09-29T03:33:33;25.50;;;18.27;;
27666;SDS011;15074;50.940;5.282;2022-09-29T03:35:59;23.48;;;18.92;;
27666;SDS011;15074;50.940;5.282;2022-09-29T03:38:25;26.10;;;18.70;;
27666;SDS011;15074;50.940;5.282;2022-09-29T03:40:51;49.08;;;18.60;;
27666;SDS011;15074;50.940;5.282;2022-09-29T03:43:16;28.75;;;16.55;;
27666;SDS011;15074;50.940;5.282;2022-09-29T03:45:47;24.48;;;16.27;;
27666;SDS011;15074;50.940;5.282;2022-09-29T03:48:17;19.35;;;16.20;;
27666;SDS011;15074;50.940;5.282;2022-09-29T03:50:45;22.98;;;17.17;;
27666;SDS011;15074;50.940;5.282;2022-09-29T03:53:12;18.55;;;16.52;;
27666;SDS011;15074;50.940;5.282;2022-09-29T03:55:38;22.90;;;16.65;;
27666;SDS011;15074;50.940;5.282;2022-09-29T03:58:04;22.65;;;17.63;;
27666;SDS011;15074;50.940;5.282;2022-09-29T04:00:30;27.15;;;19.10;;
27666;SDS011;15074;50.940;5.282;2022-09-29T04:02:59;34.80;;;18.42;;
27666;SDS011;15074;50.940;5.282;2022-09-29T04:05:25;30.92;;;19.38;;
27666;SDS011;15074;50.940;5.282;2022-09-29T04:07:53;22.52;;;18.92;;
27666;SDS011;15074;50.940;5.282;2022-09-29T04:10:18;22.38;;;16.38;;
27666;SDS011;15074;50.940;5.282;2022-09-29T04:12:44;18.23;;;16.23;;
27666;SDS011;15074;50.940;5.282;2022-09-29T04:15:09;21.27;;;16.25;;
27666;SDS011;15074;50.940;5.282;2022-09-29T04:17:35;18.73;;;16.52;;
27666;SDS011;15074;50.940;5.282;2022-09-29T04:20:01;18.75;;;16.65;;
27666;SDS011;15074;50.940;5.282;2022-09-29T04:22:26;19.40;;;16.80;;
27666;SDS011;15074;50.940;5.282;2022-09-29T04:24:52;23.52;;;16.50;;
27666;SDS011;15074;50.940;5.282;2022-09-29T04:27:18;18.20;;;16.33;;
27666;SDS011;15074;50.940;5.282;2022-09-29T04:29:43;28.98;;;18.20;;
27666;SDS011;15074;50.940;5.282;2022-09-29T04:32:09;22.20;;;17.45;;
27666;SDS011;15074;50.940;5.282;2022-09-29T04:34:35;23.05;;;16.90;;
27666;SDS011;15074;50.940;5.282;2022-09-29T04:37:01;18.73;;;15.73;;
27666;SDS011;15074;50.940;5.282;2022-09-29T04:39:26;16.80;;;15.13;;
27666;SDS011;15074;50.940;5.282;2022-09-29T04:41:52;18.88;;;16.33;;
27666;SDS011;15074;50.940;5.282;2022-09-29T04:44:18;17.40;;;15.60;;
27666;SDS011;15074;50.940;5.282;2022-09-29T04:46:49;16.67;;;15.07;;
27666;SDS011;15074;50.940;5.282;2022-09-29T04:49:15;15.32;;;13.73;;
27666;SDS011;15074;50.940;5.282;2022-09-29T04:51:44;18.35;;;16.45;;
27666;SDS011;15074;50.940;5.282;2022-09-29T04:54:10;19.42;;;15.27;;
27666;SDS011;15074;50.940;5.282;2022-09-29T04:56:36;17.80;;;15.93;;
27666;SDS011;15074;50.940;5.282;2022-09-29T04:59:02;20.63;;;15.75;;
27666;SDS011;15074;50.940;5.282;2022-09-29T05:01:28;22.85;;;16.00;;
27666;SDS011;15074;50.940;5.282;2022-09-29T05:03:54;21.38;;;15.15;;
27666;SDS011;15074;50.940;5.282;2022-09-29T05:06:19;19.23;;;14.18;;
27666;SDS011;15074;50.940;5.282;2022-09-29T05:08:45;15.65;;;13.55;;
27666;SDS011;15074;50.940;5.282;2022-09-29T05:11:11;22.85;;;13.70;;
27666;SDS011;15074;50.940;5.282;2022-09-29T05:13:37;29.58;;;14.35;;
27666;SDS011;15074;50.940;5.282;2022-09-29T05:16:03;16.20;;;14.73;;
27666;SDS011;15074;50.940;5.282;2022-09-29T05:18:29;16.90;;;15.13;;
27666;SDS011;15074;50.940;5.282;2022-09-29T05:20:55;28.90;;;19.35;;
27666;SDS011;15074;50.940;5.282;2022-09-29T05:23:26;17.35;;;15.48;;
27666;SDS011;15074;50.940;5.282;2022-09-29T05:25:52;18.08;;;14.98;;
27666;SDS011;15074;50.940;5.282;2022-09-29T05:28:18;19.40;;;15.35;;
27666;SDS011;15074;50.940;5.282;2022-09-29T05:30:43;27.23;;;21.92;;
27666;SDS011;15074;50.940;5.282;2022-09-29T05:33:09;24.42;;;17.70;;
27666;SDS011;15074;50.940;5.282;2022-09-29T05:35:35;36.78;;;21.77;;
27666;SDS011;15074;50.940;5.282;2022-09-29T05:38:02;29.98;;;20.35;;
27666;SDS011;15074;50.940;5.282;2022-09-29T05:40:27;24.33;;;16.25;;
27666;SDS011;15074;50.940;5.282;2022-09-29T05:42:53;23.25;;;18.83;;
27666;SDS011;15074;50.940;5.282;2022-09-29T05:45:39;38.90;;;24.33;;
27666;SDS011;15074;50.940;5.282;2022-09-29T05:48:04;25.23;;;19.45;;
27666;SDS011;15074;50.940;5.282;2022-09-29T05:50:30;24.95;;;17.02;;
27666;SDS011;15074;50.940;5.282;2022-09-29T05:53:01;18.83;;;15.05;;
27666;SDS011;15074;50.940;5.282;2022-09-29T05:55:27;21.15;;;16.33;;
27666;SDS011;15074;50.940;5.282;2022-09-29T05:57:53;22.42;;;15.90;;
27666;SDS011;15074;50.940;5.282;2022-09-29T06:00:18;22.63;;;16.52;;
27666;SDS011;15074;50.940;5.282;2022-09-29T06:02:44;22.70;;;15.27;;
27666;SDS011;15074;50.940;5.282;2022-09-29T06:05:10;16.52;;;14.88;;
27666;SDS011;15074;50.940;5.282;2022-09-29T06:07:35;21.02;;;16.35;;
27666;SDS011;15074;50.940;5.282;2022-09-29T06:10:01;18.10;;;16.17;;
27666;SDS011;15074;50.940;5.282;2022-09-29T06:12:27;26.85;;;16.67;;
27666;SDS011;15074;50.940;5.282;2022-09-29T06:14:52;21.63;;;15.18;;
27666;SDS011;15074;50.940;5.282;2022-09-29T06:17:18;20.10;;;14.00;;
27666;SDS011;15074;50.940;5.282;2022-09-29T06:19:43;14.50;;;11.18;;
27666;SDS011;15074;50.940;5.282;2022-09-29T06:22:09;11.70;;;10.48;;
27666;SDS011;15074;50.940;5.282;2022-09-29T06:24:35;11.20;;;9.85;;
27666;SDS011;15074;50.940;5.282;2022-09-29T06:27:00;10.90;;;9.80;;
27666;SDS011;15074;50.940;5.282;2022-09-29T06:29:26;12.63;;;9.13;;
27666;SDS011;15074;50.940;5.282;2022-09-29T06:31:52;10.73;;;9.63;;
27666;SDS011;15074;50.940;5.282;2022-09-29T06:34:18;10.40;;;9.55;;
27666;SDS011;15074;50.940;5.282;2022-09-29T06:36:44;9.32;;;8.52;;
27666;SDS011;15074;50.940;5.282;2022-09-29T06:39:28;13.02;;;8.40;;
27666;SDS011;15074;50.940;5.282;2022-09-29T06:41:55;8.85;;;7.95;;
27666;SDS011;15074;50.940;5.282;2022-09-29T06:44:22;8.32;;;7.28;;
27666;SDS011;15074;50.940;5.282;2022-09-29T06:46:49;7.57;;;6.07;;
27666;SDS011;15074;50.940;5.282;2022-09-29T06:49:15;7.20;;;6.53;;
27666;SDS011;15074;50.940;5.282;2022-09-29T06:51:41;10.18;;;6.55;;
27666;SDS011;15074;50.940;5.282;2022-09-29T06:54:08;6.65;;;6.10;;
27666;SDS011;15074;50.940;5.282;2022-09-29T06:56:38;7.45;;;6.20;;
27666;SDS011;15074;50.940;5.282;2022-09-29T06:59:04;7.18;;;6.57;;
27666;SDS011;15074;50.940;5.282;2022-09-29T07:01:30;8.07;;;5.25;;
27666;SDS011;15074;50.940;5.282;2022-09-29T07:03:55;5.70;;;5.20;;
27666;SDS011;15074;50.940;5.282;2022-09-29T07:06:21;7.38;;;6.35;;
27666;SDS011;15074;50.940;5.282;2022-09-29T07:08:47;7.20;;;5.55;;
27666;SDS011;15074;50.940;5.282;2022-09-29T07:11:17;7.68;;;6.07;;
27666;SDS011;15074;50.940;5.282;2022-09-29T07:13:43;6.13;;;5.63;;
27666;SDS011;15074;50.940;5.282;2022-09-29T07:16:10;5.82;;;5.22;;
27666;SDS011;15074;50.940;5.282;2022-09-29T07:18:38;8.15;;;5.57;;
27666;SDS011;15074;50.940;5.282;2022-09-29T07:21:05;5.70;;;5.20;;
27666;SDS011;15074;50.940;5.282;2022-09-29T07:23:34;6.95;;;4.90;;
27666;SDS011;15074;50.940;5.282;2022-09-29T07:26:00;6.97;;;5.10;;
27666;SDS011;15074;50.940;5.282;2022-09-29T07:28:27;6.13;;;5.50;;
27666;SDS011;15074;50.940;5.282;2022-09-29T07:31:00;6.30;;;5.60;;
27666;SDS011;15074;50.940;5.282;2022-09-29T07:33:30;6.32;;;5.43;;
27666;SDS011;15074;50.940;5.282;2022-09-29T07:35:56;5.57;;;4.97;;
27666;SDS011;15074;50.940;5.282;2022-09-29T07:38:24;5.57;;;5.07;;
27666;SDS011;15074;50.940;5.282;2022-09-29T07:40:58;5.65;;;4.13;;
27666;SDS011;15074;50.940;5.282;2022-09-29T07:43:25;8.88;;;4.68;;
27666;SDS011;15074;50.940;5.282;2022-09-29T07:45:51;4.45;;;4.03;;
27666;SDS011;15074;50.940;5.282;2022-09-29T07:48:17;5.93;;;3.83;;
27666;SDS011;15074;50.940;5.282;2022-09-29T07:50:43;4.88;;;3.95;;
27666;SDS011;15074;50.940;5.282;2022-09-29T07:53:10;4.45;;;3.97;;
27666;SDS011;15074;50.940;5.282;2022-09-29T07:55:37;4.10;;;3.70;;
27666;SDS011;15074;50.940;5.282;2022-09-29T07:58:03;4.05;;;3.63;;
27666;SDS011;15074;50.940;5.282;2022-09-29T08:00:29;4.03;;;3.67;;
27666;SDS011;15074;50.940;5.282;2022-09-29T08:03:02;13.88;;;6.75;;
27666;SDS011;15074;50.940;5.282;2022-09-29T08:05:31;5.28;;;4.78;;
27666;SDS011;15074;50.940;5.282;2022-09-29T08:07:58;8.40;;;4.72;;
27666;SDS011;15074;50.940;5.282;2022-09-29T08:10:25;4.32;;;3.70;;
27666;SDS011;15074;50.940;5.282;2022-09-29T08:12:51;3.88;;;3.30;;
27666;SDS011;15074;50.940;5.282;2022-09-29T08:15:19;10.30;;;5.30;;
27666;SDS011;15074;50.940;5.282;2022-09-29T08:17:45;11.73;;;3.88;;
27666;SDS011;15074;50.940;5.282;2022-09-29T08:20:11;8.35;;;4.35;;
27666;SDS011;15074;50.940;5.282;2022-09-29T08:22:36;6.18;;;4.35;;
27666;SDS011;15074;50.940;5.282;2022-09-29T08:25:02;6.47;;;3.83;;
27666;SDS011;15074;50.940;5.282;2022-09-29T08:27:28;7.03;;;3.95;;
27666;SDS011;15074;50.940;5.282;2022-09-29T08:29:54;10.68;;;4.43;;
27666;SDS011;15074;50.940;5.282;2022-09-29T08:32:21;5.07;;;3.55;;
27666;SDS011;15074;50.940;5.282;2022-09-29T08:34:47;5.00;;;3.13;;
27666;SDS011;15074;50.940;5.282;2022-09-29T08:37:13;3.83;;;2.83;;
27666;SDS011;15074;50.940;5.282;2022-09-29T08:39:38;4.80;;;2.95;;
27666;SDS011;15074;50.940;5.282;2022-09-29T08:42:06;4.18;;;3.03;;
27666;SDS011;15074;50.940;5.282;2022-09-29T08:44:44;5.93;;;2.65;;
27666;SDS011;15074;50.940;5.282;2022-09-29T08:47:21;3.95;;;2.88;;
27666;SDS011;15074;50.940;5.282;2022-09-29T08:52:22;6.23;;;2.77;;
27666;SDS011;15074;50.940;5.282;2022-09-29T08:54:55;4.80;;;3.25;;
27666;SDS011;15074;50.940;5.282;2022-09-29T08:57:42;4.95;;;2.03;;
27666;SDS011;15074;50.940;5.282;2022-09-29T09:00:15;3.33;;;2.40;;
27666;SDS011;15074;50.940;5.282;2022-09-29T09:11:16;9.82;;;4.07;;
27666;SDS011;15074;50.940;5.282;2022-09-29T09:19:47;2.97;;;2.00;;
27666;SDS011;15074;50.940;5.282;2022-09-29T09:22:41;4.47;;;2.10;;
27666;SDS011;15074;50.940;5.282;2022-09-29T09:28:03;3.83;;;2.10;;
27666;SDS011;15074;50.940;5.282;2022-09-29T09:30:37;3.55;;;1.83;;
27666;SDS011;15074;50.940;5.282;2022-09-29T09:36:05;2.92;;;1.50;;
27666;SDS011;15074;50.940;5.282;2022-09-29T09:38:46;5.60;;;2.20;;
27666;SDS011;15074;50.940;5.282;2022-09-29T09:41:33;7.18;;;2.40;;
27666;SDS011;15074;50.940;5.282;2022-09-29T09:44:14;2.67;;;2.28;;
27666;SDS011;15074;50.940;5.282;2022-09-29T09:46:42;7.40;;;2.58;;
27666;SDS011;15074;50.940;5.282;2022-09-29T09:52:11;2.45;;;1.90;;
27666;SDS011;15074;50.940;5.282;2022-09-29T09:54:49;2.95;;;1.80;;
27666;SDS011;15074;50.940;5.282;2022-09-29T10:02:43;2.78;;;1.77;;
27666;SDS011;15074;50.940;5.282;2022-09-29T10:05:19;3.92;;;1.80;;
27666;SDS011;15074;50.940;5.282;2022-09-29T10:07:50;1.80;;;1.60;;
27666;SDS011;15074;50.940;5.282;2022-09-29T10:10:21;2.80;;;2.00;;
27666;SDS011;15074;50.940;5.282;2022-09-29T10:12:50;3.88;;;2.15;;
27666;SDS011;15074;50.940;5.282;2022-09-29T10:15:24;1.50;;;1.20;;
27666;SDS011;15074;50.940;5.282;2022-09-29T10:18:00;2.47;;;1.40;;
27666;SDS011;15074;50.940;5.282;2022-09-29T10:20:37;3.15;;;1.38;;
27666;SDS011;15074;50.940;5.282;2022-09-29T10:26:00;3.22;;;1.00;;
27666;SDS011;15074;50.940;5.282;2022-09-29T10:28:46;1.45;;;1.10;;
27666;SDS011;15074;50.940;5.282;2022-09-29T10:31:20;2.00;;;1.10;;
27666;SDS011;15074;50.940;5.282;2022-09-29T10:36:55;1.83;;;0.90;;
27666;SDS011;15074;50.940;5.282;2022-09-29T10:41:57;1.15;;;0.88;;
27666;SDS011;15074;50.940;5.282;2022-09-29T10:44:23;2.70;;;1.30;;
27666;SDS011;15074;50.940;5.282;2022-09-29T10:46:56;1.63;;;0.80;;
27666;SDS011;15074;50.940;5.282;2022-09-29T10:49:24;1.27;;;0.80;;
27666;SDS011;15074;50.940;5.282;2022-09-29T10:52:05;1.33;;;0.70;;
27666;SDS011;15074;50.940;5.282;2022-09-29T10:54:51;4.38;;;1.23;;
27666;SDS011;15074;50.940;5.282;2022-09-29T10:57:22;1.95;;;1.20;;
27666;SDS011;15074;50.940;5.282;2022-09-29T10:59:50;2.45;;;1.20;;
27666;SDS011;15074;50.940;5.282;2022-09-29T11:04:47;3.25;;;1.20;;
27666;SDS011;15074;50.940;5.282;2022-09-29T11:07:13;2.97;;;1.40;;
27666;SDS011;15074;50.940;5.282;2022-09-29T11:09:44;2.15;;;1.10;;
27666;SDS011;15074;50.940;5.282;2022-09-29T11:12:30;2.78;;;1.48;;
27666;SDS011;15074;50.940;5.282;2022-09-29T11:15:07;3.08;;;1.20;;
27666;SDS011;15074;50.940;5.282;2022-09-29T11:17:51;3.00;;;0.95;;
27666;SDS011;15074;50.940;5.282;2022-09-29T11:20:17;2.63;;;0.90;;
27666;SDS011;15074;50.940;5.282;2022-09-29T11:25:20;1.52;;;0.80;;
27666;SDS011;15074;50.940;5.282;2022-09-29T11:27:56;1.15;;;0.80;;
27666;SDS011;15074;50.940;5.282;2022-09-29T11:30:41;1.95;;;0.80;;
27666;SDS011;15074;50.940;5.282;2022-09-29T11:33:53;1.33;;;0.60;;
27666;SDS011;15074;50.940;5.282;2022-09-29T11:42:19;2.30;;;0.70;;
27666;SDS011;15074;50.940;5.282;2022-09-29T11:45:08;0.95;;;0.63;;
27666;SDS011;15074;50.940;5.282;2022-09-29T11:56:24;0.95;;;0.77;;
27666;SDS011;15074;50.940;5.282;2022-09-29T12:01:50;0.88;;;0.70;;
27666;SDS011;15074;50.940;5.282;2022-09-29T12:07:20;8.13;;;0.90;;
27666;SDS011;15074;50.940;5.282;2022-09-29T12:09:57;2.03;;;0.90;;
27666;SDS011;15074;50.940;5.282;2022-09-29T12:17:36;1.45;;;0.60;;
27666;SDS011;15074;50.940;5.282;2022-09-29T12:22:46;0.95;;;0.70;;
27666;SDS011;15074;50.940;5.282;2022-09-29T12:27:45;1.13;;;0.70;;
27666;SDS011;15074;50.940;5.282;2022-09-29T12:30:25;1.40;;;0.77;;
27666;SDS011;15074;50.940;5.282;2022-09-29T12:36:24;1.92;;;0.90;;
27666;SDS011;15074;50.940;5.282;2022-09-29T12:39:30;2.28;;;1.10;;
27666;SDS011;15074;50.940;5.282;2022-09-29T12:42:31;1.48;;;0.80;;
27666;SDS011;15074;50.940;5.282;2022-09-29T12:49:12;1.52;;;0.70;;
27666;SDS011;15074;50.940;5.282;2022-09-29T12:53:38;1.23;;;0.80;;
27666;SDS011;15074;50.940;5.282;2022-09-29T12:56:13;0.75;;;0.60;;
27666;SDS011;15074;50.940;5.282;2022-09-29T13:01:37;2.28;;;0.70;;
27666;SDS011;15074;50.940;5.282;2022-09-29T13:28:56;1.55;;;1.00;;
27666;SDS011;15074;50.940;5.282;2022-09-29T13:31:27;1.33;;;1.08;;
27666;SDS011;15074;50.940;5.282;2022-09-29T13:33:56;1.50;;;0.93;;
27666;SDS011;15074;50.940;5.282;2022-09-29T13:38:54;1.85;;;0.95;;
27666;SDS011;15074;50.940;5.282;2022-09-29T13:51:43;2.78;;;1.50;;
27666;SDS011;15074;50.940;5.282;2022-09-29T13:57:27;1.20;;;0.88;;
27666;SDS011;15074;50.940;5.282;2022-09-29T13:59:40;2.28;;;0.75;;
27666;SDS011;15074;50.940;5.282;2022-09-29T14:02:19;1.30;;;0.95;;
27666;SDS011;15074;50.940;5.282;2022-09-29T14:04:58;2.08;;;0.70;;
27666;SDS011;15074;50.940;5.282;2022-09-29T14:12:59;1.67;;;1.00;;
27666;SDS011;15074;50.940;5.282;2022-09-29T14:15:27;2.63;;;1.08;;
27666;SDS011;15074;50.940;5.282;2022-09-29T14:18:00;1.80;;;1.13;;
27666;SDS011;15074;50.940;5.282;2022-09-29T14:20:30;1.88;;;0.90;;
27666;SDS011;15074;50.940;5.282;2022-09-29T14:22:58;1.48;;;0.90;;
27666;SDS011;15074;50.940;5.282;2022-09-29T14:25:33;1.95;;;1.08;;
27666;SDS011;15074;50.940;5.282;2022-09-29T14:28:21;1.20;;;0.80;;
27666;SDS011;15074;50.940;5.282;2022-09-29T14:30:55;1.73;;;1.15;;
27666;SDS011;15074;50.940;5.282;2022-09-29T14:33:37;2.38;;;0.90;;
27666;SDS011;15074;50.940;5.282;2022-09-29T14:36:14;1.38;;;0.80;;
27666;SDS011;15074;50.940;5.282;2022-09-29T14:38:44;2.83;;;0.82;;
27666;SDS011;15074;50.940;5.282;2022-09-29T14:43:39;1.13;;;0.80;;
27666;SDS011;15074;50.940;5.282;2022-09-29T15:00:53;1.75;;;1.20;;
27666;SDS011;15074;50.940;5.282;2022-09-29T15:03:43;2.10;;;0.98;;
27666;SDS011;15074;50.940;5.282;2022-09-29T15:08:41;2.40;;;0.90;;
27666;SDS011;15074;50.940;5.282;2022-09-29T15:14:03;1.33;;;0.90;;
27666;SDS011;15074;50.940;5.282;2022-09-29T15:19:39;1.52;;;1.00;;
27666;SDS011;15074;50.940;5.282;2022-09-29T15:27:41;1.83;;;0.90;;
27666;SDS011;15074;50.940;5.282;2022-09-29T15:30:15;2.90;;;0.85;;
27666;SDS011;15074;50.940;5.282;2022-09-29T15:32:42;2.00;;;1.00;;
27666;SDS011;15074;50.940;5.282;2022-09-29T15:35:10;1.77;;;0.80;;
27666;SDS011;15074;50.940;5.282;2022-09-29T15:40:15;3.15;;;0.85;;
27666;SDS011;15074;50.940;5.282;2022-09-29T15:42:42;1.70;;;1.00;;
27666;SDS011;15074;50.940;5.282;2022-09-29T15:45:17;2.83;;;0.90;;
27666;SDS011;15074;50.940;5.282;2022-09-29T15:47:48;1.98;;;0.80;;
27666;SDS011;15074;50.940;5.282;2022-09-29T15:50:27;1.55;;;0.80;;
27666;SDS011;15074;50.940;5.282;2022-09-29T15:53:00;1.55;;;0.82;;
27666;SDS011;15074;50.940;5.282;2022-09-29T15:55:28;4.65;;;1.30;;
27666;SDS011;15074;50.940;5.282;2022-09-29T15:57:55;3.42;;;1.30;;
27666;SDS011;15074;50.940;5.282;2022-09-29T16:03:01;1.98;;;0.80;;
27666;SDS011;15074;50.940;5.282;2022-09-29T16:05:28;2.97;;;0.90;;
27666;SDS011;15074;50.940;5.282;2022-09-29T16:08:01;2.08;;;0.90;;
27666;SDS011;15074;50.940;5.282;2022-09-29T16:10:30;3.20;;;0.95;;
27666;SDS011;15074;50.940;5.282;2022-09-29T16:13:02;177.75;;;30.30;;
27666;SDS011;15074;50.940;5.282;2022-09-29T16:15:36;1.52;;;1.05;;
27666;SDS011;15074;50.940;5.282;2022-09-29T16:18:08;3.00;;;1.02;;
27666;SDS011;15074;50.940;5.282;2022-09-29T16:20:41;2.08;;;1.20;;
27666;SDS011;15074;50.940;5.282;2022-09-29T16:23:16;2.05;;;1.27;;
27666;SDS011;15074;50.940;5.282;2022-09-29T16:28:37;2.75;;;1.23;;
27666;SDS011;15074;50.940;5.282;2022-09-29T16:31:09;3.40;;;1.30;;
27666;SDS011;15074;50.940;5.282;2022-09-29T16:33:44;3.67;;;1.20;;
27666;SDS011;15074;50.940;5.282;2022-09-29T16:36:13;2.65;;;1.00;;
27666;SDS011;15074;50.940;5.282;2022-09-29T16:38:45;3.95;;;1.20;;
27666;SDS011;15074;50.940;5.282;2022-09-29T16:41:36;7.22;;;1.30;;
27666;SDS011;15074;50.940;5.282;2022-09-29T16:44:09;3.17;;;1.20;;
27666;SDS011;15074;50.940;5.282;2022-09-29T16:49:13;4.57;;;1.42;;
27666;SDS011;15074;50.940;5.282;2022-09-29T16:51:54;3.47;;;1.15;;
27666;SDS011;15074;50.940;5.282;2022-09-29T16:54:30;9.90;;;1.70;;
27666;SDS011;15074;50.940;5.282;2022-09-29T16:59:44;2.50;;;1.30;;
27666;SDS011;15074;50.940;5.282;2022-09-29T17:02:10;3.63;;;1.50;;
27666;SDS011;15074;50.940;5.282;2022-09-29T17:04:37;7.43;;;1.38;;
27666;SDS011;15074;50.940;5.282;2022-09-29T17:07:03;7.65;;;2.00;;
27666;SDS011;15074;50.940;5.282;2022-09-29T17:09:28;2.83;;;1.60;;
27666;SDS011;15074;50.940;5.282;2022-09-29T17:11:55;21.23;;;2.65;;
27666;SDS011;15074;50.940;5.282;2022-09-29T17:14:21;3.67;;;1.60;;
27666;SDS011;15074;50.940;5.282;2022-09-29T17:16:47;15.18;;;2.22;;
27666;SDS011;15074;50.940;5.282;2022-09-29T17:19:15;2.17;;;1.50;;
27666;SDS011;15074;50.940;5.282;2022-09-29T17:21:46;7.22;;;2.63;;
27666;SDS011;15074;50.940;5.282;2022-09-29T17:24:12;3.33;;;1.90;;
27666;SDS011;15074;50.940;5.282;2022-09-29T17:26:43;2.95;;;2.03;;
27666;SDS011;15074;50.940;5.282;2022-09-29T17:29:28;2.85;;;2.13;;
27666;SDS011;15074;50.940;5.282;2022-09-29T17:31:54;2.60;;;2.00;;
27666;SDS011;15074;50.940;5.282;2022-09-29T17:34:20;4.78;;;2.55;;
27666;SDS011;15074;50.940;5.282;2022-09-29T17:36:53;3.90;;;2.30;;
27666;SDS011;15074;50.940;5.282;2022-09-29T17:39:21;3.55;;;1.92;;
27666;SDS011;15074;50.940;5.282;2022-09-29T17:41:47;3.72;;;2.20;;
27666;SDS011;15074;50.940;5.282;2022-09-29T17:44:13;2.95;;;1.80;;
27666;SDS011;15074;50.940;5.282;2022-09-29T17:46:40;3.15;;;1.55;;
27666;SDS011;15074;50.940;5.282;2022-09-29T17:49:15;2.40;;;1.75;;
27666;SDS011;15074;50.940;5.282;2022-09-29T17:51:43;8.65;;;2.20;;
27666;SDS011;15074;50.940;5.282;2022-09-29T17:54:13;4.47;;;2.95;;
27666;SDS011;15074;50.940;5.282;2022-09-29T17:56:40;5.40;;;2.78;;
27666;SDS011;15074;50.940;5.282;2022-09-29T17:59:08;5.70;;;2.60;;
27666;SDS011;15074;50.940;5.282;2022-09-29T18:01:35;4.43;;;3.00;;
27666;SDS011;15074;50.940;5.282;2022-09-29T18:04:03;65.97;;;15.20;;
27666;SDS011;15074;50.940;5.282;2022-09-29T18:06:32;12.07;;;7.28;;
27666;SDS011;15074;50.940;5.282;2022-09-29T18:09:02;11.73;;;5.32;;
27666;SDS011;15074;50.940;5.282;2022-09-29T18:11:37;4.95;;;4.38;;
27666;SDS011;15074;50.940;5.282;2022-09-29T18:14:03;7.72;;;3.42;;
27666;SDS011;15074;50.940;5.282;2022-09-29T18:16:29;5.55;;;3.13;;
27666;SDS011;15074;50.940;5.282;2022-09-29T18:18:54;5.28;;;3.25;;
27666;SDS011;15074;50.940;5.282;2022-09-29T18:21:22;7.93;;;4.55;;
27666;SDS011;15074;50.940;5.282;2022-09-29T18:23:48;6.88;;;4.28;;
27666;SDS011;15074;50.940;5.282;2022-09-29T18:26:14;12.25;;;5.70;;
27666;SDS011;15074;50.940;5.282;2022-09-29T18:28:40;6.13;;;5.30;;
27666;SDS011;15074;50.940;5.282;2022-09-29T18:31:17;13.68;;;5.80;;
27666;SDS011;15074;50.940;5.282;2022-09-29T18:33:55;8.73;;;5.72;;
27666;SDS011;15074;50.940;5.282;2022-09-29T18:36:20;8.55;;;7.07;;
27666;SDS011;15074;50.940;5.282;2022-09-29T18:38:46;10.18;;;9.18;;
27666;SDS011;15074;50.940;5.282;2022-09-29T18:41:13;11.38;;;10.30;;
27666;SDS011;15074;50.940;5.282;2022-09-29T18:43:42;7.75;;;7.05;;